Auburndale, Massachusetts
Current Conditions -  °F | °C
As of 2:54 AM on Saturday 20 Dec 2014 (Local Time) from KBOS Reporting Station
Clear Clear  
Wind Chill: 19°   Ceiling: Unl
Heat Index: 28°   Visibility: 10mi
Dew Point: 20°   Wind: 9mph
Humidity: 72%   Direction: 330°NNW
Pressure: 30.19"   Gusts: NA
Location:  42.35°N, 70.95°W
Report Text: KBOS 200754Z 33008KT 10SM CLR M02/M07 A3019 RMK AO2 SLP223 T10221067
Loading
Personal Weather Stations






























Interactive Weather Map New forecast layout! Learn more

10-Day Weather Forecast

Advertisements
Track Severe Weather on mobile